Time;durP1;ratioP1;P1;durP2;ratioP2;P2;SDS_P1;SDS_P2;PMS_P1;PMS_P2;Temp;Humidity;BMP_temperature;BMP_pressure;BME280_temperature;BME280_humidity;BME280_pressure;Samples;Min_cycle;Max_cycle;Signal;HPM_P1;HPM_P2
2021/09/04 00:00:15;;;;;;;14.97;9.17;;;15.30;93.20;;;;;;5033426;28;20182;-77
2021/09/04 00:02:41;;;;;;;13.47;8.67;;;15.30;93.10;;;;;;5032328;28;20579;-76
2021/09/04 00:05:07;;;;;;;14.63;9.10;;;15.30;93.00;;;;;;5032485;28;20418;-77
2021/09/04 00:07:33;;;;;;;12.00;8.00;;;15.30;92.90;;;;;;5033135;28;20667;-77
2021/09/04 00:09:59;;;;;;;17.03;9.30;;;15.30;93.00;;;;;;5032266;28;20430;-76
2021/09/04 00:12:26;;;;;;;15.10;9.67;;;15.30;92.90;;;;;;5032717;28;20531;-77
2021/09/04 00:14:56;;;;;;;15.27;9.00;;;15.30;92.50;;;;;;5030906;28;20790;-76
2021/09/04 00:17:22;;;;;;;16.73;8.63;;;15.20;92.70;;;;;;5032709;28;20955;-78
2021/09/04 00:19:48;;;;;;;17.80;8.83;;;15.20;93.00;;;;;;5032736;28;20423;-76
2021/09/04 00:22:14;;;;;;;13.23;8.67;;;15.20;93.10;;;;;;5033040;28;20465;-76
2021/09/04 00:24:39;;;;;;;15.40;8.97;;;15.20;93.10;;;;;;5033171;28;20209;-76
2021/09/04 00:27:06;;;;;;;15.60;9.50;;;15.10;93.40;;;;;;5033477;28;20200;-77
2021/09/04 00:29:33;;;;;;;18.20;9.00;;;15.10;93.70;;;;;;5032980;28;20180;-77
2021/09/04 00:31:59;;;;;;;16.60;9.53;;;15.10;93.90;;;;;;5036388;28;20427;-77
2021/09/04 00:34:24;;;;;;;19.00;10.83;;;15.10;93.80;;;;;;5034408;28;20434;-77
2021/09/04 00:36:50;;;;;;;13.67;8.83;;;15.10;93.80;;;;;;5032710;28;20245;-77
2021/09/04 00:39:16;;;;;;;16.33;9.30;;;15.10;93.80;;;;;;5038432;28;20197;-76
2021/09/04 00:41:42;;;;;;;19.37;9.70;;;15.10;93.80;;;;;;5044471;28;20189;-76
2021/09/04 00:44:14;;;;;;;15.20;9.27;;;15.10;93.70;;;;;;5043687;28;20288;-76
2021/09/04 00:46:39;;;;;;;15.47;9.00;;;15.00;93.70;;;;;;5040546;28;21022;-78
2021/09/04 00:49:05;;;;;;;15.40;9.07;;;15.00;93.80;;;;;;5034290;28;20420;-77
2021/09/04 00:51:31;;;;;;;13.80;9.50;;;15.00;94.00;;;;;;5034150;28;20185;-79
2021/09/04 00:53:56;;;;;;;16.00;8.57;;;15.00;94.00;;;;;;5032523;28;20573;-76
2021/09/04 00:56:22;;;;;;;13.10;8.60;;;14.90;94.10;;;;;;5031854;28;20259;-77
2021/09/04 00:58:48;;;;;;;14.30;8.47;;;14.90;94.20;;;;;;5032484;28;20195;-77
2021/09/04 01:01:14;;;;;;;16.70;9.43;;;14.90;94.20;;;;;;5030364;28;20429;-77
2021/09/04 01:03:40;;;;;;;19.33;10.27;;;14.90;94.10;;;;;;5032356;28;20211;-77
2021/09/04 01:06:06;;;;;;;14.60;8.40;;;14.90;93.60;;;;;;5030461;28;20570;-75
2021/09/04 01:08:31;;;;;;;14.03;9.20;;;14.80;93.10;;;;;;5030489;28;20436;-75
2021/09/04 01:10:57;;;;;;;15.40;9.13;;;14.70;93.40;;;;;;5029745;28;20238;-75
2021/09/04 01:13:23;;;;;;;15.90;8.37;;;14.70;93.70;;;;;;5031179;28;20975;-77
2021/09/04 01:15:49;;;;;;;14.27;9.13;;;14.60;94.20;;;;;;5030325;28;20212;-76
2021/09/04 01:18:15;;;;;;;15.03;8.47;;;14.60;94.40;;;;;;5032546;28;20722;-77
2021/09/04 01:20:41;;;;;;;15.40;8.90;;;14.60;94.50;;;;;;5030594;28;20432;-77
2021/09/04 01:23:07;;;;;;;16.90;8.53;;;14.60;94.70;;;;;;5031340;28;20448;-76
2021/09/04 01:25:33;;;;;;;14.40;8.60;;;14.60;94.90;;;;;;5030943;28;20432;-75
2021/09/04 01:28:01;;;;;;;11.70;8.17;;;14.60;94.80;;;;;;5031257;28;20684;-76
2021/09/04 01:30:27;;;;;;;13.40;8.27;;;14.50;94.90;;;;;;5030643;28;20440;-76
2021/09/04 01:32:53;;;;;;;15.73;8.70;;;14.60;94.90;;;;;;5031596;28;20428;-75
2021/09/04 01:35:23;;;;;;;16.67;8.60;;;14.60;94.80;;;;;;5030627;28;21056;-76
2021/09/04 01:37:49;;;;;;;14.63;8.53;;;14.50;94.80;;;;;;5031210;28;20440;-76
2021/09/04 01:40:16;;;;;;;17.13;9.10;;;14.60;94.80;;;;;;5029843;28;20819;-76
2021/09/04 01:42:45;;;;;;;15.07;9.17;;;14.50;94.90;;;;;;5030025;28;20432;-76
2021/09/04 01:45:12;;;;;;;13.17;8.37;;;14.50;94.90;;;;;;5029032;28;20418;-77
2021/09/04 01:47:38;;;;;;;14.63;8.07;;;14.50;94.90;;;;;;5029520;28;20468;-76
2021/09/04 01:50:09;;;;;;;15.60;9.40;;;14.50;94.90;;;;;;5031393;28;20452;-76
2021/09/04 01:52:38;;;;;;;14.43;8.87;;;14.50;94.80;;;;;;5031843;28;20428;-76
2021/09/04 01:55:05;;;;;;;16.73;8.70;;;14.50;94.70;;;;;;5031899;28;20463;-76
2021/09/04 01:57:31;;;;;;;13.27;8.67;;;14.50;94.50;;;;;;5030262;28;20429;-76
2021/09/04 01:59:56;;;;;;;11.97;8.23;;;14.50;94.10;;;;;;5031988;28;20937;-76
2021/09/04 02:02:22;;;;;;;16.33;10.50;;;14.40;93.70;;;;;;5037175;28;20207;-75
2021/09/04 02:04:48;;;;;;;14.60;9.27;;;14.40;93.80;;;;;;5026046;28;20216;-77
2021/09/04 02:07:14;;;;;;;13.10;9.23;;;14.30;94.30;;;;;;5031511;28;20553;-76
2021/09/04 02:09:39;;;;;;;14.93;8.60;;;14.20;94.60;;;;;;5041683;28;20181;-76
2021/09/04 02:12:06;;;;;;;12.20;8.23;;;14.20;94.90;;;;;;5033399;28;20232;-76
2021/09/04 02:14:32;;;;;;;12.63;8.13;;;14.20;95.10;;;;;;5029833;28;20208;-76
2021/09/04 02:16:58;;;;;;;16.67;9.00;;;14.20;95.20;;;;;;5031235;28;20436;-77
2021/09/04 02:19:24;;;;;;;13.27;8.20;;;14.20;95.30;;;;;;5029978;28;20440;-77
2021/09/04 02:21:49;;;;;;;15.70;8.90;;;14.20;95.30;;;;;;5031613;28;20193;-76
2021/09/04 02:24:15;;;;;;;15.37;9.00;;;14.20;95.40;;;;;;5031216;28;20204;-77
2021/09/04 02:26:41;;;;;;;15.40;9.77;;;14.20;95.20;;;;;;5031351;28;20213;-76
2021/09/04 02:29:07;;;;;;;17.97;9.70;;;14.20;95.10;;;;;;5031380;28;20185;-77
2021/09/04 02:31:32;;;;;;;15.53;9.10;;;14.20;95.30;;;;;;5031086;28;20189;-76
2021/09/04 02:33:58;;;;;;;12.23;8.70;;;14.20;95.40;;;;;;5031015;28;20205;-75
2021/09/04 02:36:24;;;;;;;18.90;10.07;;;14.10;95.40;;;;;;5031186;28;20652;-75
2021/09/04 02:38:50;;;;;;;12.40;8.27;;;14.10;95.30;;;;;;5031154;28;20243;-75
2021/09/04 02:41:17;;;;;;;12.73;8.67;;;14.10;95.40;;;;;;5031017;28;20486;-75
2021/09/04 02:43:43;;;;;;;19.90;9.57;;;14.10;95.50;;;;;;5030660;28;20941;-75
2021/09/04 02:46:09;;;;;;;16.00;8.57;;;14.10;95.30;;;;;;5029420;28;20566;-76
2021/09/04 02:48:35;;;;;;;15.13;8.60;;;14.10;95.20;;;;;;5031125;28;20420;-75
2021/09/04 02:51:02;;;;;;;16.67;10.17;;;14.00;95.30;;;;;;5033753;28;20428;-75
2021/09/04 02:53:28;;;;;;;16.40;10.20;;;14.00;95.50;;;;;;5036404;28;20917;-76
2021/09/04 02:55:53;;;;;;;17.23;9.13;;;14.00;95.50;;;;;;5031899;28;20542;-76
2021/09/04 02:58:19;;;;;;;17.33;10.00;;;14.00;95.50;;;;;;5030912;28;20192;-75
2021/09/04 03:00:45;;;;;;;15.67;8.73;;;14.00;95.50;;;;;;5030757;28;20257;-75
2021/09/04 03:03:10;;;;;;;14.00;8.33;;;14.00;95.40;;;;;;5030320;28;20216;-75
2021/09/04 03:05:36;;;;;;;11.97;7.77;;;14.00;95.40;;;;;;5029087;28;20189;-75
2021/09/04 03:08:03;;;;;;;14.50;9.00;;;14.00;95.50;;;;;;5029273;28;20244;-77
2021/09/04 03:10:29;;;;;;;14.10;9.00;;;14.00;95.40;;;;;;5029920;28;20549;-76
2021/09/04 03:12:56;;;;;;;13.33;8.50;;;14.00;95.60;;;;;;5029437;28;20431;-77
2021/09/04 03:15:22;;;;;;;15.60;9.13;;;13.90;95.60;;;;;;5028808;28;20983;-76
2021/09/04 03:17:48;;;;;;;17.57;9.83;;;14.00;95.60;;;;;;5029525;28;20451;-76
2021/09/04 03:20:14;;;;;;;15.10;8.87;;;13.90;95.50;;;;;;5028941;28;20678;-76
2021/09/04 03:22:39;;;;;;;15.33;9.80;;;13.80;95.60;;;;;;5029687;28;20428;-75
2021/09/04 03:25:06;;;;;;;14.00;8.93;;;13.80;95.70;;;;;;5025589;28;20535;-75
2021/09/04 03:27:32;;;;;;;13.80;7.97;;;13.80;95.80;;;;;;5022336;28;20264;-75
2021/09/04 03:29:58;;;;;;;15.00;9.53;;;13.80;95.70;;;;;;5027636;28;21326;-76
2021/09/04 03:32:24;;;;;;;16.93;8.67;;;13.80;95.70;;;;;;5029564;28;20512;-76
2021/09/04 03:34:50;;;;;;;16.43;9.17;;;13.80;95.80;;;;;;5029171;28;20809;-77
2021/09/04 03:37:16;;;;;;;15.37;9.17;;;13.80;95.90;;;;;;5029980;28;20455;-78
2021/09/04 03:39:42;;;;;;;15.53;9.30;;;13.70;95.90;;;;;;5028180;28;20597;-77
2021/09/04 03:42:08;;;;;;;14.90;8.83;;;13.70;96.10;;;;;;5029939;28;20559;-76
2021/09/04 03:44:34;;;;;;;14.53;8.67;;;13.70;96.00;;;;;;5031368;28;20209;-77
2021/09/04 03:46:59;;;;;;;16.20;8.63;;;13.70;96.00;;;;;;5032287;28;20475;-78
2021/09/04 03:49:25;;;;;;;14.87;8.67;;;13.70;96.00;;;;;;5033623;28;20173;-77
2021/09/04 03:51:51;;;;;;;18.00;9.80;;;13.80;95.90;;;;;;5032618;28;20714;-77
2021/09/04 03:54:16;;;;;;;19.10;10.23;;;13.70;95.70;;;;;;5032586;28;20340;-77
2021/09/04 03:56:42;;;;;;;22.33;10.03;;;13.60;96.00;;;;;;5033485;28;20189;-78
2021/09/04 03:59:08;;;;;;;14.60;9.50;;;13.70;96.00;;;;;;5032843;28;20213;-76
2021/09/04 04:01:34;;;;;;;13.97;9.57;;;13.70;96.10;;;;;;5033815;28;20251;-76
2021/09/04 04:03:59;;;;;;;13.63;8.43;;;13.60;96.10;;;;;;5033053;28;20213;-78
2021/09/04 04:06:25;;;;;;;14.63;8.97;;;13.60;96.10;;;;;;5032578;28;20202;-75
2021/09/04 04:08:51;;;;;;;17.97;10.60;;;13.60;96.10;;;;;;5031867;28;20181;-78
2021/09/04 04:11:17;;;;;;;17.10;10.07;;;13.60;96.10;;;;;;5033858;28;20187;-78
2021/09/04 04:13:42;;;;;;;17.63;10.30;;;13.60;96.10;;;;;;5032445;28;20690;-77
2021/09/04 04:16:09;;;;;;;14.73;9.40;;;13.50;96.20;;;;;;5032027;28;20634;-78
2021/09/04 04:18:35;;;;;;;15.00;9.07;;;13.50;96.30;;;;;;5033436;28;20643;-77
2021/09/04 04:21:02;;;;;;;16.10;9.53;;;13.50;96.40;;;;;;5032213;28;20463;-77
2021/09/04 04:23:28;;;;;;;14.03;8.20;;;13.40;96.40;;;;;;5032016;28;20451;-78
2021/09/04 04:25:54;;;;;;;20.80;9.80;;;13.30;96.60;;;;;;5031114;28;20489;-78
2021/09/04 04:28:20;;;;;;;15.97;9.50;;;13.40;96.60;;;;;;5033208;28;20284;-76
2021/09/04 04:30:46;;;;;;;15.80;9.70;;;13.40;96.60;;;;;;5033551;28;20420;-76
2021/09/04 04:33:12;;;;;;;18.50;9.00;;;13.30;96.60;;;;;;5032707;28;20444;-77
2021/09/04 04:35:39;;;;;;;15.30;8.83;;;13.30;96.70;;;;;;5034638;28;20511;-77
2021/09/04 04:38:05;;;;;;;15.10;8.57;;;13.30;96.70;;;;;;5047296;28;20503;-76
2021/09/04 04:40:31;;;;;;;17.37;9.80;;;13.40;96.60;;;;;;5034232;28;20431;-77
2021/09/04 04:42:56;;;;;;;15.57;9.40;;;13.30;96.60;;;;;;5032957;28;20424;-75
2021/09/04 04:45:22;;;;;;;15.70;9.50;;;13.30;96.60;;;;;;5033015;28;20188;-76
2021/09/04 04:47:48;;;;;;;16.00;10.20;;;13.30;96.70;;;;;;5032438;28;20285;-76
2021/09/04 04:50:15;;;;;;;13.20;9.03;;;13.30;96.70;;;;;;5032703;28;20426;-77
2021/09/04 04:52:41;;;;;;;13.77;8.60;;;13.30;96.70;;;;;;5032853;28;20185;-76
2021/09/04 04:55:08;;;;;;;15.43;9.50;;;13.20;96.80;;;;;;5032146;28;20515;-77
2021/09/04 04:57:34;;;;;;;14.73;8.70;;;13.20;96.80;;;;;;5040694;28;20518;-76
2021/09/04 05:00:00;;;;;;;19.80;10.43;;;13.20;97.00;;;;;;5033631;28;20459;-76
2021/09/04 05:02:25;;;;;;;15.13;9.00;;;13.20;97.10;;;;;;5032983;28;20938;-77
2021/09/04 05:04:51;;;;;;;15.90;9.70;;;13.20;97.10;;;;;;5033199;28;20220;-75
2021/09/04 05:07:17;;;;;;;17.60;10.27;;;13.30;97.10;;;;;;5033298;28;20204;-75
2021/09/04 05:09:43;;;;;;;18.43;9.80;;;13.30;97.00;;;;;;5031082;28;20219;-77
2021/09/04 05:12:09;;;;;;;17.20;9.93;;;13.30;97.00;;;;;;5032345;28;20607;-77
2021/09/04 05:14:34;;;;;;;16.00;9.77;;;13.20;96.80;;;;;;5032467;28;20726;-76
2021/09/04 05:17:00;;;;;;;16.17;8.90;;;13.30;96.80;;;;;;5031448;28;20428;-75
2021/09/04 05:19:26;;;;;;;14.70;9.27;;;13.30;96.70;;;;;;5033023;28;20178;-76
2021/09/04 05:21:52;;;;;;;18.53;9.10;;;13.40;96.70;;;;;;5032731;28;20181;-75
2021/09/04 05:24:17;;;;;;;15.07;8.53;;;13.40;96.50;;;;;;5031399;28;20220;-76
2021/09/04 05:26:43;;;;;;;18.23;9.13;;;13.40;96.40;;;;;;5032226;28;20220;-77
2021/09/04 05:29:09;;;;;;;16.30;9.00;;;13.40;96.00;;;;;;5030584;28;20675;-76
2021/09/04 05:31:34;;;;;;;15.80;8.87;;;13.40;95.20;;;;;;5032041;28;20228;-76
2021/09/04 05:34:00;;;;;;;14.03;8.27;;;13.40;94.40;;;;;;5031463;28;20278;-77
2021/09/04 05:36:26;;;;;;;15.17;9.30;;;13.40;94.30;;;;;;5031041;28;20203;-77
2021/09/04 05:38:52;;;;;;;16.03;9.33;;;13.30;94.50;;;;;;5031081;28;20189;-77
2021/09/04 05:41:17;;;;;;;15.17;10.10;;;13.40;94.90;;;;;;5030886;28;20236;-76
2021/09/04 05:43:43;;;;;;;15.20;9.17;;;13.30;95.10;;;;;;5031487;28;20304;-77
2021/09/04 05:46:09;;;;;;;14.00;8.77;;;13.30;95.40;;;;;;5031661;28;20662;-76
2021/09/04 05:48:35;;;;;;;18.17;9.33;;;13.30;95.80;;;;;;5031862;28;20423;-76
2021/09/04 05:51:00;;;;;;;15.27;9.60;;;13.30;96.20;;;;;;5030835;28;20432;-75
2021/09/04 05:53:26;;;;;;;17.37;10.67;;;13.40;96.20;;;;;;5031500;28;20193;-76
2021/09/04 05:55:52;;;;;;;20.30;11.10;;;13.40;96.30;;;;;;5031430;28;20185;-76
2021/09/04 05:58:18;;;;;;;19.33;11.27;;;13.50;96.30;;;;;;5030349;28;20587;-76
2021/09/04 06:00:44;;;;;;;21.03;11.50;;;13.50;96.40;;;;;;5031603;28;20562;-76
2021/09/04 06:03:10;;;;;;;21.57;12.87;;;13.60;96.20;;;;;;5031830;28;20205;-77
2021/09/04 06:05:36;;;;;;;24.67;11.93;;;13.60;95.90;;;;;;5031560;28;20934;-77
2021/09/04 06:08:02;;;;;;;29.07;13.80;;;13.70;95.70;;;;;;5031421;28;20236;-76
2021/09/04 06:10:28;;;;;;;23.23;12.27;;;13.70;95.40;;;;;;5031944;28;20419;-78
2021/09/04 06:12:54;;;;;;;22.87;12.03;;;13.80;95.20;;;;;;5031558;28;20438;-77
2021/09/04 06:15:20;;;;;;;24.80;12.50;;;13.90;94.90;;;;;;5030044;28;20263;-77
2021/09/04 06:17:46;;;;;;;24.93;13.30;;;13.90;94.70;;;;;;5030834;28;20435;-77
2021/09/04 06:20:12;;;;;;;26.07;12.23;;;13.80;94.70;;;;;;5030868;28;20420;-78
2021/09/04 06:22:37;;;;;;;23.70;13.40;;;13.80;94.90;;;;;;5031199;28;20550;-77
2021/09/04 06:25:04;;;;;;;21.90;12.97;;;13.80;95.10;;;;;;5029468;28;20447;-78
2021/09/04 06:27:30;;;;;;;24.10;12.73;;;13.80;95.10;;;;;;5022075;28;20763;-77
2021/09/04 06:29:56;;;;;;;21.00;11.03;;;13.90;95.30;;;;;;5028492;28;20431;-77
2021/09/04 06:32:22;;;;;;;20.33;11.80;;;14.00;95.30;;;;;;5030172;28;20448;-76
2021/09/04 06:34:48;;;;;;;21.50;12.37;;;14.10;95.10;;;;;;5029389;28;20760;-77
2021/09/04 06:37:13;;;;;;;20.50;11.77;;;14.20;95.00;;;;;;5030262;28;20216;-76
2021/09/04 06:39:39;;;;;;;19.67;11.30;;;14.30;94.60;;;;;;5030496;28;20424;-77
2021/09/04 06:42:05;;;;;;;24.70;12.50;;;14.40;94.40;;;;;;5030087;28;20182;-76
2021/09/04 06:44:32;;;;;;;24.90;13.50;;;14.40;94.30;;;;;;5030021;28;20535;-78
2021/09/04 06:46:58;;;;;;;22.43;13.57;;;14.40;94.20;;;;;;5030582;28;20201;-77
2021/09/04 06:49:24;;;;;;;23.33;13.37;;;14.40;94.40;;;;;;5030242;28;20426;-78
2021/09/04 06:51:50;;;;;;;22.43;11.77;;;14.40;94.30;;;;;;5030918;28;20424;-78
2021/09/04 06:54:15;;;;;;;25.70;12.87;;;14.50;94.40;;;;;;5030360;28;20205;-78
2021/09/04 06:56:41;;;;;;;20.70;12.47;;;14.60;94.10;;;;;;5031533;28;20644;-77
2021/09/04 06:59:10;;;;;;;20.60;11.53;;;14.70;93.70;;;;;;5029859;28;20249;-77
2021/09/04 07:01:36;;;;;;;22.40;12.03;;;14.90;93.30;;;;;;5030093;28;20186;-77
2021/09/04 07:04:02;;;;;;;19.10;11.77;;;14.90;93.10;;;;;;5029802;28;20576;-77
2021/09/04 07:06:28;;;;;;;21.83;11.80;;;15.00;93.00;;;;;;5020912;28;21052;-76
2021/09/04 07:08:54;;;;;;;21.30;12.60;;;15.10;92.90;;;;;;5029984;28;20248;-77
2021/09/04 07:11:19;;;;;;;21.87;12.13;;;15.20;92.60;;;;;;5028539;28;20185;-77
2021/09/04 07:13:45;;;;;;;22.63;12.33;;;15.20;92.60;;;;;;5029930;28;20236;-77
2021/09/04 07:16:11;;;;;;;21.63;11.97;;;15.30;92.40;;;;;;5031587;28;20270;-75
2021/09/04 07:18:36;;;;;;;21.17;11.80;;;15.30;92.50;;;;;;5030184;28;20192;-77
2021/09/04 07:21:02;;;;;;;19.83;13.00;;;15.40;92.30;;;;;;5032281;28;20186;-77
2021/09/04 07:23:28;;;;;;;21.37;12.70;;;15.50;92.20;;;;;;5031826;28;20204;-77
2021/09/04 07:25:53;;;;;;;23.07;12.03;;;15.50;92.10;;;;;;5033910;28;20213;-78
2021/09/04 07:28:19;;;;;;;21.20;12.37;;;15.70;91.70;;;;;;5033951;28;20683;-77
2021/09/04 07:30:45;;;;;;;23.33;11.90;;;15.80;91.50;;;;;;5034580;28;20222;-78
2021/09/04 07:33:11;;;;;;;21.40;11.90;;;15.90;91.20;;;;;;5034912;28;20204;-78
2021/09/04 07:35:36;;;;;;;18.50;12.00;;;16.00;90.90;;;;;;5034288;28;20199;-77
2021/09/04 07:38:02;;;;;;;18.20;11.10;;;16.10;90.50;;;;;;5034941;28;20193;-78
2021/09/04 07:40:28;;;;;;;19.50;11.40;;;16.10;90.70;;;;;;5034397;28;20458;-78
2021/09/04 07:42:54;;;;;;;19.40;11.60;;;16.10;90.90;;;;;;5034788;28;20426;-78
2021/09/04 07:45:19;;;;;;;22.83;12.20;;;16.10;90.90;;;;;;5032110;28;20200;-77
2021/09/04 07:47:45;;;;;;;20.90;11.90;;;16.20;90.60;;;;;;5033719;28;20213;-77
2021/09/04 07:50:11;;;;;;;18.67;11.73;;;16.30;90.60;;;;;;5033204;28;20670;-77
2021/09/04 07:52:37;;;;;;;21.00;12.10;;;16.40;90.20;;;;;;5033624;28;20607;-78
2021/09/04 07:55:03;;;;;;;18.77;12.07;;;16.50;90.10;;;;;;5033974;28;20209;-78
2021/09/04 07:57:28;;;;;;;18.40;11.27;;;16.40;90.20;;;;;;5034912;28;20189;-78
2021/09/04 07:59:56;;;;;;;20.43;11.90;;;16.50;90.30;;;;;;5033777;28;20430;-77
2021/09/04 08:02:22;;;;;;;16.73;10.67;;;16.60;89.90;;;;;;5032835;28;20192;-77
2021/09/04 08:04:48;;;;;;;19.10;11.00;;;16.70;89.70;;;;;;5027943;28;20996;-78
2021/09/04 08:07:13;;;;;;;18.93;11.67;;;16.80;89.60;;;;;;5032777;28;20507;-76
2021/09/04 08:09:39;;;;;;;22.33;11.57;;;16.90;89.30;;;;;;5033292;28;20188;-77
2021/09/04 08:12:05;;;;;;;20.20;11.57;;;17.10;88.60;;;;;;5032761;28;20184;-77
2021/09/04 08:14:31;;;;;;;18.07;10.77;;;17.20;88.60;;;;;;5034393;28;20200;-77
2021/09/04 08:16:57;;;;;;;16.50;10.77;;;17.30;88.10;;;;;;5038163;28;20432;-77
2021/09/04 08:19:23;;;;;;;19.97;10.40;;;17.30;88.10;;;;;;5036703;28;20188;-77
2021/09/04 08:21:48;;;;;;;22.07;11.87;;;17.60;87.10;;;;;;5036531;28;20207;-77
2021/09/04 08:24:14;;;;;;;20.73;11.00;;;17.70;86.00;;;;;;5039680;28;20251;-77
2021/09/04 08:26:40;;;;;;;19.53;11.27;;;17.80;85.60;;;;;;5040731;28;20672;-77
2021/09/04 08:29:06;;;;;;;16.60;10.40;;;18.00;85.20;;;;;;5040233;28;20194;-76
2021/09/04 08:31:31;;;;;;;19.10;10.57;;;18.00;85.30;;;;;;5038452;28;20189;-78
2021/09/04 08:33:57;;;;;;;16.20;10.47;;;18.10;85.20;;;;;;5067596;28;20201;-76
2021/09/04 08:36:23;;;;;;;18.43;11.17;;;18.10;84.90;;;;;;5036352;28;20216;-77
2021/09/04 08:38:49;;;;;;;17.30;10.57;;;18.20;84.60;;;;;;5034315;28;20180;-77
2021/09/04 08:41:16;;;;;;;16.40;9.33;;;18.30;84.30;;;;;;5025155;28;20199;-76
2021/09/04 08:43:41;;;;;;;17.90;10.10;;;18.30;84.00;;;;;;5031815;28;20239;-75
2021/09/04 08:46:07;;;;;;;17.17;10.00;;;18.40;84.00;;;;;;5023082;28;20964;-76
2021/09/04 08:48:35;;;;;;;22.63;10.23;;;18.60;83.60;;;;;;5032387;28;20304;-77
2021/09/04 08:51:00;;;;;;;19.00;9.70;;;18.80;82.50;;;;;;5031441;28;20890;-76
2021/09/04 08:53:26;;;;;;;16.10;9.53;;;18.90;82.20;;;;;;5033174;28;20577;-76
2021/09/04 08:55:52;;;;;;;18.20;10.40;;;19.00;81.80;;;;;;5049229;28;20189;-75
2021/09/04 08:58:18;;;;;;;16.80;10.23;;;19.10;81.10;;;;;;5045959;28;20198;-77
2021/09/04 09:00:44;;;;;;;19.50;10.00;;;19.30;80.50;;;;;;5038343;28;20236;-77
2021/09/04 09:03:36;;;;;;;15.57;9.93;;;19.40;80.00;;;;;;5031785;28;20252;-76
2021/09/04 09:06:02;;;;;;;14.77;9.20;;;19.50;79.50;;;;;;5026767;28;20442;-77
2021/09/04 09:08:28;;;;;;;15.13;9.40;;;19.60;79.20;;;;;;5033619;28;20424;-75
2021/09/04 09:10:59;;;;;;;15.23;9.17;;;19.60;78.90;;;;;;5034559;28;20182;-75
2021/09/04 09:13:26;;;;;;;16.90;10.00;;;19.70;78.70;;;;;;5028783;28;20436;-75
2021/09/04 09:15:55;;;;;;;16.50;9.87;;;19.80;79.00;;;;;;5032446;28;20563;-74
2021/09/04 09:18:28;;;;;;;18.90;9.67;;;19.90;78.60;;;;;;5044961;28;20472;-74
2021/09/04 09:21:03;;;;;;;16.80;9.90;;;20.00;76.80;;;;;;5042588;28;20824;-72
2021/09/04 09:23:30;;;;;;;17.77;10.20;;;20.10;77.10;;;;;;5040159;28;20513;-74
2021/09/04 09:26:06;;;;;;;16.80;9.07;;;20.10;76.70;;;;;;5045899;28;20436;-75
2021/09/04 09:28:32;;;;;;;13.27;8.10;;;20.20;76.50;;;;;;5046012;28;20479;-76
2021/09/04 09:31:00;;;;;;;14.57;9.47;;;20.30;75.80;;;;;;5044838;28;20428;-76
2021/09/04 09:33:31;;;;;;;14.80;8.70;;;20.50;75.40;;;;;;5048232;28;20222;-76
2021/09/04 09:35:59;;;;;;;11.47;8.20;;;20.60;74.50;;;;;;5051361;28;20436;-76
2021/09/04 09:38:30;;;;;;;14.90;8.70;;;20.70;73.90;;;;;;5048418;28;20415;-75
2021/09/04 09:40:57;;;;;;;16.43;8.47;;;20.80;73.60;;;;;;5043333;28;20427;-74
2021/09/04 09:43:29;;;;;;;14.97;9.00;;;20.90;73.30;;;;;;5036056;28;20465;-74
2021/09/04 09:46:03;;;;;;;11.97;8.07;;;21.00;72.10;;;;;;5030746;28;20425;-75
2021/09/04 09:48:31;;;;;;;11.30;8.17;;;21.20;71.10;;;;;;5021946;28;20480;-76
2021/09/04 09:50:59;;;;;;;10.40;6.83;;;21.30;69.80;;;;;;5031839;28;20429;-75
2021/09/04 09:53:26;;;;;;;12.63;8.63;;;21.40;69.10;;;;;;5032315;28;20456;-77
2021/09/04 09:55:54;;;;;;;11.37;7.67;;;21.40;69.50;;;;;;5030561;28;21087;-77
2021/09/04 09:58:21;;;;;;;16.63;8.63;;;21.40;69.50;;;;;;5034050;28;20428;-77
2021/09/04 10:00:49;;;;;;;8.83;6.10;;;21.50;69.10;;;;;;5030116;28;20419;-76
2021/09/04 10:03:18;;;;;;;11.90;7.87;;;21.60;67.20;;;;;;5031370;28;20453;-78
2021/09/04 10:05:46;;;;;;;9.50;6.57;;;21.70;67.20;;;;;;5035076;28;20426;-77
2021/09/04 10:08:15;;;;;;;9.97;5.90;;;21.80;64.20;;;;;;5035184;28;20466;-80
2021/09/04 10:10:42;;;;;;;11.13;6.10;;;21.80;65.00;;;;;;5027653;28;20475;-77
2021/09/04 10:13:08;;;;;;;10.90;6.47;;;21.90;65.70;;;;;;5032004;28;20438;-79
2021/09/04 10:15:38;;;;;;;11.40;7.03;;;21.90;65.30;;;;;;5021037;28;20446;-79
2021/09/04 10:18:08;;;;;;;10.50;6.40;;;22.00;65.30;;;;;;5030650;28;20202;-76
2021/09/04 10:20:35;;;;;;;9.63;6.53;;;22.10;64.80;;;;;;5030653;28;20424;-79
2021/09/04 10:23:22;;;;;;;10.80;5.60;;;22.20;63.20;;;;;;5031908;28;20449;-80
2021/09/04 10:25:49;;;;;;;8.43;5.87;;;22.20;61.00;;;;;;5035049;28;20418;-77
2021/09/04 10:28:15;;;;;;;6.70;4.80;;;22.30;60.70;;;;;;5034653;28;20495;-80
2021/09/04 10:30:45;;;;;;;8.10;5.00;;;22.30;58.10;;;;;;5030990;28;20471;-81
2021/09/04 10:33:16;;;;;;;7.37;4.90;;;22.50;57.30;;;;;;5030809;28;20455;-77
2021/09/04 10:35:48;;;;;;;9.70;5.73;;;22.50;58.10;;;;;;5030627;28;20446;-77
2021/09/04 10:38:20;;;;;;;9.80;5.70;;;22.60;59.20;;;;;;5029225;28;20420;-78
2021/09/04 10:40:48;;;;;;;9.83;5.60;;;22.70;59.70;;;;;;5030380;28;20475;-78
2021/09/04 10:43:15;;;;;;;7.40;5.57;;;23.00;58.10;;;;;;5029272;28;20461;-76
2021/09/04 10:45:43;;;;;;;11.10;6.60;;;23.40;57.80;;;;;;5028710;28;20423;-79
2021/09/04 10:48:19;;;;;;;8.57;5.53;;;23.90;56.00;;;;;;5024101;28;20505;-77
2021/09/04 10:51:08;;;;;;;9.80;5.60;;;24.40;53.60;;;;;;5028287;28;20428;-77
2021/09/04 10:54:00;;;;;;;8.03;5.20;;;25.00;51.20;;;;;;5031364;28;20468;-77
2021/09/04 10:56:32;;;;;;;12.17;6.17;;;25.60;51.00;;;;;;5031352;28;20442;-78
2021/09/04 10:58:58;;;;;;;8.17;5.60;;;26.20;48.60;;;;;;5030413;28;20428;-77
2021/09/04 11:01:48;;;;;;;10.60;6.00;;;26.80;47.40;;;;;;5033616;28;20439;-77
2021/09/04 11:04:14;;;;;;;10.93;7.10;;;27.30;48.30;;;;;;5024170;28;20459;-77
2021/09/04 11:06:47;;;;;;;9.73;7.27;;;27.50;48.50;;;;;;5032825;28;20467;-78
2021/09/04 11:09:13;;;;;;;10.50;7.60;;;27.50;48.60;;;;;;5034057;28;20415;-76
2021/09/04 11:11:39;;;;;;;12.80;8.43;;;27.20;49.80;;;;;;5034757;28;20423;-76
2021/09/04 11:14:24;;;;;;;10.77;7.30;;;27.10;50.20;;;;;;5033917;28;20446;-76
2021/09/04 11:16:51;;;;;;;9.90;6.97;;;27.10;50.20;;;;;;5036155;28;20510;-78
2021/09/04 11:19:21;;;;;;;10.87;7.63;;;27.00;49.00;;;;;;5036390;28;20465;-76
2021/09/04 11:21:52;;;;;;;9.57;6.80;;;26.30;51.30;;;;;;5036515;28;20413;-77
2021/09/04 11:24:20;;;;;;;10.70;6.77;;;26.10;52.10;;;;;;5034767;28;20776;-77
2021/09/04 11:27:09;;;;;;;12.70;6.97;;;26.00;52.10;;;;;;5034701;28;20462;-77
2021/09/04 11:29:47;;;;;;;9.67;6.57;;;26.00;52.20;;;;;;5029160;28;20454;-77
2021/09/04 11:32:16;;;;;;;14.67;6.07;;;26.00;52.10;;;;;;5033764;28;20428;-77
2021/09/04 11:34:56;;;;;;;12.80;7.30;;;26.10;52.00;;;;;;5033498;28;20540;-77
2021/09/04 11:37:28;;;;;;;10.60;7.30;;;26.30;51.70;;;;;;5033653;28;20445;-78
2021/09/04 11:39:59;;;;;;;10.50;6.60;;;26.70;50.70;;;;;;5033706;28;20512;-77
2021/09/04 11:42:28;;;;;;;15.57;7.30;;;26.80;50.60;;;;;;5032960;28;20434;-77
2021/09/04 11:44:53;;;;;;;9.97;6.20;;;26.50;50.50;;;;;;5034474;28;20437;-78
2021/09/04 11:47:20;;;;;;;10.10;6.20;;;26.40;51.20;;;;;;5035565;28;20474;-77
2021/09/04 11:49:52;;;;;;;12.63;7.00;;;26.50;50.30;;;;;;5035370;28;20180;-79
2021/09/04 11:52:24;;;;;;;9.10;6.10;;;26.70;50.70;;;;;;5037087;28;20425;-81
2021/09/04 11:54:51;;;;;;;12.17;6.53;;;26.90;50.50;;;;;;5036480;28;20826;-78
2021/09/04 11:57:28;;;;;;;10.10;7.10;;;27.20;50.30;;;;;;5036733;28;20465;-79
2021/09/04 12:00:03;;;;;;;10.03;6.53;;;27.20;49.70;;;;;;5037417;28;20432;-79
2021/09/04 12:02:29;;;;;;;11.00;6.80;;;27.20;49.90;;;;;;5034023;28;20438;-79
2021/09/04 12:04:55;;;;;;;8.77;6.87;;;27.40;49.90;;;;;;5032817;28;20452;-78
2021/09/04 12:07:28;;;;;;;7.87;5.93;;;27.80;49.00;;;;;;5032698;28;20551;-75
2021/09/04 12:09:56;;;;;;;9.70;6.67;;;28.30;47.90;;;;;;5026608;28;20427;-76
2021/09/04 12:12:26;;;;;;;11.00;6.90;;;28.70;47.00;;;;;;5033571;28;20416;-77
2021/09/04 12:14:53;;;;;;;9.23;6.40;;;29.10;46.20;;;;;;5025726;28;20443;-77
2021/09/04 12:17:19;;;;;;;9.50;5.00;;;29.20;45.00;;;;;;5034065;28;20427;-76
2021/09/04 12:19:45;;;;;;;8.30;5.77;;;29.20;43.90;;;;;;5035019;28;20424;-75
2021/09/04 12:22:11;;;;;;;8.97;5.77;;;29.20;43.50;;;;;;5043515;28;20187;-75
2021/09/04 12:24:36;;;;;;;7.27;5.40;;;29.00;41.60;;;;;;5040877;28;20419;-79
2021/09/04 12:27:03;;;;;;;10.00;5.90;;;28.90;41.80;;;;;;5039123;28;20202;-78
2021/09/04 12:29:31;;;;;;;7.03;4.73;;;29.00;43.00;;;;;;5034417;28;20190;-76
2021/09/04 12:32:06;;;;;;;9.33;4.73;;;29.10;41.00;;;;;;5032755;28;20503;-78
2021/09/04 12:34:32;;;;;;;8.53;5.00;;;28.90;40.00;;;;;;5030493;28;20509;-77